createdAt,value
2022-08-22T00:00:16.746Z,2.00
2022-08-22T00:03:04.653Z,1.70
2022-08-22T00:03:09.682Z,2.10
2022-08-22T00:03:10.555Z,2.10
2022-08-22T00:03:25.073Z,2.00
2022-08-22T00:06:15.416Z,1.80
2022-08-22T00:09:03.442Z,1.90
2022-08-22T00:11:43.695Z,2.10
2022-08-22T00:14:22.281Z,2.00
2022-08-22T00:16:59.971Z,1.60
2022-08-22T00:19:35.662Z,2.10
2022-08-22T00:22:19.737Z,2.40
2022-08-22T00:25:20.587Z,2.00
2022-08-22T00:28:02.340Z,2.40
2022-08-22T00:30:47.922Z,2.30
2022-08-22T00:33:43.733Z,2.20
2022-08-22T00:36:23.939Z,2.30
2022-08-22T00:39:31.589Z,2.50
2022-08-22T00:42:39.710Z,2.30
2022-08-22T00:45:47.063Z,2.20
2022-08-22T00:48:57.323Z,2.10
2022-08-22T00:51:41.379Z,2.30
2022-08-22T00:54:28.905Z,2.00
2022-08-22T00:57:15.527Z,2.50
2022-08-22T01:01:12.393Z,2.30
2022-08-22T01:04:00.453Z,2.20
2022-08-22T01:06:44.147Z,2.20
2022-08-22T01:09:23.256Z,2.40
2022-08-22T01:12:24.007Z,2.30
2022-08-22T01:15:01.738Z,2.30
2022-08-22T01:18:13.750Z,2.30
2022-08-22T01:21:24.209Z,2.40
2022-08-22T01:24:19.335Z,2.10
2022-08-22T01:27:19.343Z,2.40
2022-08-22T01:30:28.979Z,2.10
2022-08-22T01:33:43.541Z,2.10
2022-08-22T01:36:30.430Z,2.20
2022-08-22T01:39:30.735Z,2.20
2022-08-22T01:42:29.771Z,2.20
2022-08-22T01:45:37.699Z,2.40
2022-08-22T01:48:15.030Z,2.10
2022-08-22T01:50:54.718Z,2.10
2022-08-22T01:53:31.392Z,2.10
2022-08-22T01:56:11.184Z,2.60
2022-08-22T01:58:55.695Z,2.40
2022-08-22T02:01:35.355Z,2.50
2022-08-22T02:04:11.553Z,2.20
2022-08-22T02:06:49.707Z,2.20
2022-08-22T02:09:35.800Z,2.50
2022-08-22T02:12:27.800Z,2.60
2022-08-22T02:15:07.796Z,2.20
2022-08-22T02:18:01.247Z,2.20
2022-08-22T02:20:38.301Z,2.70
2022-08-22T02:23:19.603Z,2.70
2022-08-22T02:25:54.424Z,2.30
2022-08-22T02:28:57.433Z,2.20
2022-08-22T02:31:49.470Z,2.40
2022-08-22T02:34:40.979Z,2.60
2022-08-22T02:37:17.464Z,2.30
2022-08-22T02:39:54.253Z,2.40
2022-08-22T02:42:28.423Z,2.60
2022-08-22T02:45:08.300Z,2.50
2022-08-22T02:47:48.260Z,2.10
2022-08-22T02:53:18.023Z,2.50
2022-08-22T02:55:56.322Z,2.60
2022-08-22T02:58:39.108Z,3.00
2022-08-22T03:01:25.614Z,2.70
2022-08-22T03:04:23.992Z,3.30
2022-08-22T03:07:14.266Z,2.80
2022-08-22T03:09:58.239Z,2.50
2022-08-22T03:12:40.436Z,2.80
2022-08-22T03:15:25.887Z,2.70
2022-08-22T03:18:00.822Z,2.60
2022-08-22T03:20:51.115Z,2.60
2022-08-22T03:23:30.450Z,2.40
2022-08-22T03:26:07.927Z,2.80
2022-08-22T03:28:58.923Z,2.50
2022-08-22T03:31:36.614Z,2.60
2022-08-22T03:34:26.566Z,2.50
2022-08-22T03:37:08.348Z,2.80
2022-08-22T03:39:50.741Z,2.80
2022-08-22T03:42:46.263Z,2.80
2022-08-22T03:45:56.632Z,2.90
2022-08-22T03:48:57.285Z,3.10
2022-08-22T03:51:40.669Z,2.60
2022-08-22T03:54:39.416Z,2.80
2022-08-22T03:57:39.885Z,2.80
2022-08-22T04:00:29.686Z,2.70
2022-08-22T04:03:25.432Z,2.80
2022-08-22T04:06:17.239Z,3.00
2022-08-22T04:09:11.983Z,2.90
2022-08-22T04:12:13.583Z,2.90
2022-08-22T04:15:02.547Z,3.10
2022-08-22T04:17:57.596Z,3.40
2022-08-22T04:20:49.334Z,3.10
2022-08-22T04:23:43.324Z,3.00
2022-08-22T04:26:16.663Z,3.20
2022-08-22T04:28:51.159Z,3.20
2022-08-22T04:31:27.656Z,3.20
2022-08-22T04:34:00.733Z,3.40
2022-08-22T04:36:35.720Z,3.20
2022-08-22T04:39:09.948Z,3.20
2022-08-22T04:41:49.209Z,3.20
2022-08-22T04:44:23.811Z,2.80
2022-08-22T04:46:59.524Z,3.00
2022-08-22T04:49:34.933Z,2.90
2022-08-22T04:52:12.152Z,3.20
2022-08-22T04:54:48.221Z,3.30
2022-08-22T04:57:29.116Z,3.30
2022-08-22T05:00:02.605Z,3.00
2022-08-22T05:02:33.249Z,2.90
2022-08-22T05:05:13.453Z,3.50
2022-08-22T05:07:47.515Z,3.50
2022-08-22T05:10:19.962Z,3.10
2022-08-22T05:12:52.104Z,3.00
2022-08-22T05:15:25.905Z,3.30
2022-08-22T05:18:06.554Z,2.80
2022-08-22T05:20:38.589Z,2.90
2022-08-22T05:23:17.383Z,3.20
2022-08-22T05:25:50.101Z,3.20
2022-08-22T05:31:02.992Z,3.00
2022-08-22T05:33:36.769Z,3.10
2022-08-22T05:36:16.202Z,3.30
2022-08-22T05:38:51.175Z,3.20
2022-08-22T05:41:26.125Z,4.00
2022-08-22T05:43:57.838Z,3.10
2022-08-22T05:46:36.410Z,2.90
2022-08-22T05:49:07.558Z,3.20
2022-08-22T05:51:44.549Z,3.10
2022-08-22T05:54:19.987Z,3.20
2022-08-22T05:56:54.765Z,3.40
2022-08-22T05:59:29.468Z,4.40
2022-08-22T06:02:06.474Z,3.10
2022-08-22T06:04:43.622Z,3.50
2022-08-22T06:07:18.064Z,3.50
2022-08-22T06:10:08.802Z,3.70
2022-08-22T06:12:43.358Z,3.60
2022-08-22T06:15:21.083Z,3.10
2022-08-22T06:17:55.187Z,3.50
2022-08-22T06:20:31.038Z,3.30
2022-08-22T06:23:03.609Z,3.30
2022-08-22T06:25:35.378Z,3.70
2022-08-22T06:28:09.439Z,3.50
2022-08-22T06:30:41.244Z,3.20
2022-08-22T06:33:14.011Z,3.30
2022-08-22T06:36:07.475Z,3.20
2022-08-22T06:38:52.976Z,3.40
2022-08-22T06:41:24.746Z,3.30
2022-08-22T06:43:55.892Z,3.50
2022-08-22T06:46:29.814Z,3.80
2022-08-22T06:49:02.657Z,3.50
2022-08-22T06:51:33.400Z,3.60
2022-08-22T06:54:06.628Z,3.90
2022-08-22T06:56:42.218Z,3.60
2022-08-22T06:59:16.127Z,3.50
2022-08-22T07:01:50.518Z,4.20
2022-08-22T07:04:26.443Z,3.80
2022-08-22T07:07:00.687Z,4.00
2022-08-22T07:09:35.256Z,4.20
2022-08-22T07:12:11.842Z,4.00
2022-08-22T07:14:44.725Z,3.70
2022-08-22T07:17:21.592Z,3.80
2022-08-22T07:20:00.895Z,3.80
2022-08-22T07:22:34.293Z,4.00
2022-08-22T07:25:08.754Z,4.00
2022-08-22T07:27:55.023Z,4.50
2022-08-22T07:30:27.858Z,4.30
2022-08-22T07:33:26.633Z,4.20
2022-08-22T07:35:56.521Z,4.90
2022-08-22T07:38:36.290Z,4.90
2022-08-22T07:41:13.147Z,4.50
2022-08-22T07:43:46.635Z,5.00
2022-08-22T07:46:25.604Z,5.10
2022-08-22T07:49:13.553Z,4.50
2022-08-22T07:51:46.179Z,4.40
2022-08-22T07:54:17.976Z,4.20
2022-08-22T07:56:56.476Z,4.60
2022-08-22T07:59:28.178Z,4.60
2022-08-22T08:02:01.727Z,4.90
2022-08-22T08:04:38.123Z,4.70
2022-08-22T08:07:12.679Z,4.30
2022-08-22T08:09:44.782Z,5.50
2022-08-22T08:12:16.671Z,5.10
2022-08-22T08:14:49.059Z,5.00
2022-08-22T08:17:22.639Z,5.20
2022-08-22T08:19:54.442Z,4.50
2022-08-22T08:22:28.431Z,4.60
2022-08-22T08:25:00.408Z,4.50
2022-08-22T08:30:24.827Z,4.40
2022-08-22T08:33:24.325Z,4.70
2022-08-22T08:36:02.288Z,4.10
2022-08-22T08:38:38.968Z,4.30
2022-08-22T08:41:37.847Z,5.10
2022-08-22T08:44:19.042Z,5.00
2022-08-22T08:47:17.130Z,4.80
2022-08-22T08:50:11.980Z,4.80
2022-08-22T08:53:15.465Z,5.00
2022-08-22T08:55:52.457Z,4.10
2022-08-22T08:58:34.794Z,4.20
2022-08-22T09:01:16.798Z,4.60
2022-08-22T09:04:15.577Z,4.70
2022-08-22T09:07:08.557Z,4.50
2022-08-22T09:12:56.284Z,5.30
2022-08-22T09:16:04.226Z,4.30
2022-08-22T09:18:54.716Z,4.90
2022-08-22T09:21:55.858Z,5.00
2022-08-22T09:24:53.402Z,4.60
2022-08-22T09:27:32.223Z,4.30
2022-08-22T09:30:11.618Z,4.80
2022-08-22T09:33:02.841Z,4.80
2022-08-22T09:35:39.612Z,4.30
2022-08-22T09:38:35.400Z,4.20
2022-08-22T09:40:15.394Z,4.50
2022-08-22T09:41:14.786Z,4.90
2022-08-22T09:43:48.641Z,4.50
2022-08-22T09:46:21.616Z,5.00
2022-08-22T09:49:05.499Z,4.90
2022-08-22T09:51:43.084Z,5.20
2022-08-22T09:54:23.429Z,5.10
2022-08-22T09:57:01.785Z,5.40
2022-08-22T09:59:45.610Z,5.00
2022-08-22T10:02:26.847Z,5.20
2022-08-22T10:05:06.739Z,5.20
2022-08-22T10:07:54.226Z,5.80
2022-08-22T10:10:38.893Z,5.30
2022-08-22T10:13:14.737Z,5.10
2022-08-22T10:15:47.763Z,5.40
2022-08-22T10:18:28.797Z,5.60
2022-08-22T10:21:20.343Z,5.30
2022-08-22T10:26:45.320Z,4.80
2022-08-22T10:29:36.885Z,5.20
2022-08-22T10:32:16.745Z,5.40
2022-08-22T10:34:50.623Z,4.80
2022-08-22T10:37:30.900Z,5.20
2022-08-22T10:40:07.226Z,4.90
2022-08-22T10:42:40.584Z,4.80
2022-08-22T10:45:35.768Z,4.60
2022-08-22T10:48:24.386Z,5.30
2022-08-22T10:51:02.955Z,5.70
2022-08-22T10:53:53.102Z,4.80
2022-08-22T10:56:33.952Z,4.20
2022-08-22T10:59:09.683Z,3.90
2022-08-22T11:01:46.004Z,3.80
2022-08-22T11:04:29.964Z,4.10
2022-08-22T11:09:37.141Z,3.90
2022-08-22T11:12:21.485Z,3.70
2022-08-22T11:15:04.819Z,3.70
2022-08-22T11:18:12.971Z,3.70
2022-08-22T11:20:52.874Z,3.70
2022-08-22T11:23:32.790Z,3.60
2022-08-22T11:26:12.471Z,3.70
2022-08-22T11:29:13.598Z,3.20
2022-08-22T11:31:51.636Z,2.70
2022-08-22T11:34:34.793Z,2.90
2022-08-22T11:37:11.601Z,2.90
2022-08-22T11:39:47.877Z,3.00
2022-08-22T11:42:24.039Z,3.70
2022-08-22T11:45:02.071Z,3.30
2022-08-22T11:47:34.898Z,3.80
2022-08-22T11:50:13.495Z,3.40
2022-08-22T11:52:58.331Z,3.60
2022-08-22T11:55:34.653Z,3.30
2022-08-22T11:58:19.893Z,3.70
2022-08-22T12:00:56.819Z,3.20
2022-08-22T12:03:55.791Z,3.40
2022-08-22T12:06:49.640Z,3.80
2022-08-22T12:09:35.977Z,3.50
2022-08-22T12:12:38.719Z,3.20
2022-08-22T12:15:21.302Z,3.70
2022-08-22T12:18:21.431Z,3.80
2022-08-22T12:21:04.165Z,3.70
2022-08-22T12:23:50.648Z,3.60
2022-08-22T12:26:26.181Z,3.30
2022-08-22T12:29:15.269Z,3.40
2022-08-22T12:32:10.106Z,3.50
2022-08-22T12:34:46.243Z,3.30
2022-08-22T12:37:21.140Z,3.70
2022-08-22T12:40:13.046Z,3.30
2022-08-22T12:42:59.255Z,3.30
2022-08-22T12:45:36.683Z,3.20
2022-08-22T12:48:21.384Z,3.20
2022-08-22T12:50:59.692Z,3.20
2022-08-22T12:54:07.740Z,3.20
2022-08-22T12:56:47.471Z,3.30
2022-08-22T12:59:25.023Z,2.80
2022-08-22T13:01:57.779Z,3.00
2022-08-22T13:04:33.034Z,3.40
2022-08-22T13:07:10.314Z,3.20
2022-08-22T13:09:43.322Z,3.10
2022-08-22T13:12:24.136Z,3.00
2022-08-22T13:14:57.379Z,3.20
2022-08-22T13:17:27.947Z,2.80
2022-08-22T13:20:02.375Z,3.00
2022-08-22T13:22:35.840Z,3.10
2022-08-22T13:25:16.493Z,3.40
2022-08-22T13:27:59.045Z,3.10
2022-08-22T13:30:32.980Z,3.40
2022-08-22T13:33:09.503Z,3.00
2022-08-22T13:35:51.556Z,2.90
2022-08-22T13:38:26.029Z,2.90
2022-08-22T13:40:58.636Z,3.30
2022-08-22T13:43:31.537Z,3.40
2022-08-22T13:46:03.603Z,3.40
2022-08-22T13:48:49.640Z,3.00
2022-08-22T13:51:24.934Z,3.10
2022-08-22T13:54:02.063Z,3.20
2022-08-22T13:56:47.286Z,2.70
2022-08-22T13:59:50.075Z,3.20
2022-08-22T14:02:31.038Z,2.80
2022-08-22T14:05:08.067Z,3.20
2022-08-22T14:07:42.606Z,2.70
2022-08-22T14:10:20.485Z,2.80
2022-08-22T14:13:17.481Z,2.90
2022-08-22T14:15:48.488Z,3.10
2022-08-22T14:18:30.456Z,3.10
2022-08-22T14:21:33.462Z,3.20
2022-08-22T14:24:19.005Z,2.80
2022-08-22T14:26:57.946Z,3.10
2022-08-22T14:29:31.825Z,3.40
2022-08-22T14:32:06.344Z,2.90
2022-08-22T14:34:45.418Z,3.00
2022-08-22T14:37:22.241Z,3.00
2022-08-22T14:39:59.144Z,3.00
2022-08-22T14:42:44.379Z,3.20
2022-08-22T14:45:19.394Z,2.80
2022-08-22T14:48:29.376Z,2.90
2022-08-22T14:50:53.149Z,3.20
2022-08-22T14:53:28.940Z,3.00
2022-08-22T14:56:07.743Z,3.10
2022-08-22T14:58:51.178Z,3.20
2022-08-22T15:01:32.696Z,2.90
2022-08-22T15:04:06.189Z,3.00
2022-08-22T15:06:39.362Z,3.30
2022-08-22T15:09:35.172Z,2.90
2022-08-22T15:12:10.575Z,2.90
2022-08-22T15:14:52.499Z,3.10
2022-08-22T15:20:27.596Z,2.80
2022-08-22T15:25:31.685Z,3.00
2022-08-22T15:28:06.663Z,3.20
2022-08-22T15:30:44.493Z,3.00
2022-08-22T15:33:18.848Z,3.00
2022-08-22T15:35:50.401Z,2.90
2022-08-22T15:38:36.367Z,3.40
2022-08-22T15:41:31.232Z,2.90
2022-08-22T15:44:31.140Z,3.40
2022-08-22T15:47:05.128Z,3.40
2022-08-22T15:49:37.877Z,3.10
2022-08-22T15:52:21.155Z,3.10
2022-08-22T15:55:21.363Z,2.80
2022-08-22T15:58:02.083Z,2.80
2022-08-22T16:00:43.679Z,2.70
2022-08-22T16:03:24.873Z,3.40
2022-08-22T16:05:57.861Z,3.10
2022-08-22T16:08:33.253Z,3.10
2022-08-22T16:11:27.542Z,2.90
2022-08-22T16:14:21.395Z,2.90
2022-08-22T16:17:17.431Z,2.90
2022-08-22T16:19:49.737Z,2.90
2022-08-22T16:22:20.075Z,3.60
2022-08-22T16:25:10.333Z,2.80
2022-08-22T16:27:54.110Z,3.30
2022-08-22T16:30:36.019Z,2.90
2022-08-22T16:33:08.775Z,2.80
2022-08-22T16:36:23.308Z,3.40
2022-08-22T16:38:55.816Z,2.60
2022-08-22T16:41:32.498Z,2.90
2022-08-22T16:44:35.956Z,2.80
2022-08-22T16:47:16.661Z,2.80
2022-08-22T16:50:04.333Z,2.80
2022-08-22T16:52:56.020Z,3.00
2022-08-22T16:55:48.096Z,3.10
2022-08-22T16:58:57.932Z,3.20
2022-08-22T17:01:52.269Z,3.10
2022-08-22T17:04:32.097Z,2.70
2022-08-22T17:07:15.793Z,2.80
2022-08-22T17:10:12.377Z,3.20
2022-08-22T17:12:53.126Z,3.10
2022-08-22T17:15:35.671Z,2.90
2022-08-22T17:18:23.864Z,3.10
2022-08-22T17:21:01.477Z,2.80
2022-08-22T17:23:39.467Z,3.30
2022-08-22T17:26:21.056Z,2.90
2022-08-22T17:29:10.262Z,3.10
2022-08-22T17:31:49.404Z,3.90
2022-08-22T17:34:32.281Z,3.30
2022-08-22T17:37:10.052Z,3.40
2022-08-22T17:39:55.847Z,3.60
2022-08-22T17:42:43.250Z,3.80
2022-08-22T17:45:23.475Z,3.80
2022-08-22T17:48:03.773Z,3.50
2022-08-22T17:50:40.011Z,3.10
2022-08-22T17:53:16.061Z,3.40
2022-08-22T17:56:01.770Z,3.60
2022-08-22T17:58:43.742Z,3.30
2022-08-22T18:03:51.952Z,3.00
2022-08-22T18:06:25.702Z,3.20
2022-08-22T18:09:15.218Z,3.30
2022-08-22T18:11:50.853Z,2.90
2022-08-22T18:14:29.309Z,2.70
2022-08-22T18:17:00.853Z,3.00
2022-08-22T18:19:43.547Z,3.00
2022-08-22T18:22:21.115Z,3.10
2022-08-22T18:24:57.888Z,2.90
2022-08-22T18:27:34.635Z,2.60
2022-08-22T18:30:19.790Z,2.80
2022-08-22T18:33:00.354Z,3.00
2022-08-22T18:35:35.161Z,2.80
2022-08-22T18:38:20.169Z,2.80
2022-08-22T18:40:56.065Z,2.90
2022-08-22T18:43:36.531Z,3.00
2022-08-22T18:46:28.455Z,3.10
2022-08-22T18:49:15.220Z,3.30
2022-08-22T18:51:46.775Z,3.10
2022-08-22T18:54:33.428Z,3.00
2022-08-22T18:57:11.189Z,2.70
2022-08-22T19:00:01.343Z,2.80
2022-08-22T19:02:55.929Z,3.20
2022-08-22T19:05:43.442Z,2.90
2022-08-22T19:08:53.830Z,3.40
2022-08-22T19:11:35.075Z,2.70
2022-08-22T19:14:18.520Z,2.90
2022-08-22T19:17:15.395Z,2.90
2022-08-22T19:20:12.119Z,3.50
2022-08-22T19:22:43.226Z,3.20
2022-08-22T19:25:19.019Z,2.80
2022-08-22T19:28:26.793Z,3.30
2022-08-22T19:31:22.420Z,2.80
2022-08-22T19:34:22.013Z,3.30
2022-08-22T19:37:32.741Z,3.80
2022-08-22T19:40:06.573Z,3.20
2022-08-22T19:42:46.745Z,2.90
2022-08-22T19:45:28.774Z,2.80
2022-08-22T19:48:09.473Z,3.00
2022-08-22T19:50:43.007Z,3.10
2022-08-22T19:53:26.533Z,2.80
2022-08-22T19:56:02.607Z,2.80
2022-08-22T19:58:40.052Z,2.90
2022-08-22T20:01:25.932Z,3.00
2022-08-22T20:03:58.405Z,3.00
2022-08-22T20:09:21.796Z,3.20
2022-08-22T20:12:10.009Z,3.40
2022-08-22T20:14:43.981Z,3.30
2022-08-22T20:17:35.712Z,3.30
2022-08-22T20:20:17.563Z,3.10
2022-08-22T20:22:53.085Z,3.50
2022-08-22T20:25:42.861Z,4.20
2022-08-22T20:28:33.213Z,3.50
2022-08-22T20:31:05.899Z,3.00
2022-08-22T20:33:38.361Z,3.70
2022-08-22T20:39:01.704Z,3.70
2022-08-22T20:41:35.979Z,3.20
2022-08-22T20:44:12.458Z,3.40
2022-08-22T20:46:58.718Z,3.40
2022-08-22T20:49:31.375Z,3.30
2022-08-22T20:52:04.795Z,3.00
2022-08-22T20:54:38.562Z,3.00
2022-08-22T20:57:17.012Z,3.30
2022-08-22T20:59:56.081Z,3.40
2022-08-22T21:02:29.729Z,3.40
2022-08-22T21:05:03.088Z,3.20
2022-08-22T21:07:36.180Z,3.40
2022-08-22T21:10:26.831Z,3.20
2022-08-22T21:13:05.995Z,3.30
2022-08-22T21:15:39.278Z,3.40
2022-08-22T21:18:09.813Z,3.50
2022-08-22T21:20:41.258Z,3.10
2022-08-22T21:23:15.054Z,2.90
2022-08-22T21:25:56.915Z,2.80
2022-08-22T21:28:33.718Z,3.50
2022-08-22T21:31:12.904Z,3.10
2022-08-22T21:33:48.787Z,2.90
2022-08-22T21:36:20.920Z,3.60
2022-08-22T21:38:54.920Z,2.90
2022-08-22T21:41:30.570Z,3.70
2022-08-22T21:44:19.496Z,3.10
2022-08-22T21:46:49.867Z,3.40
2022-08-22T21:49:25.755Z,3.40
2022-08-22T21:51:56.273Z,3.70
2022-08-22T21:54:43.292Z,3.20
2022-08-22T21:57:33.504Z,3.60
2022-08-22T22:00:08.696Z,3.50
2022-08-22T22:02:44.056Z,3.50
2022-08-22T22:05:17.133Z,3.90
2022-08-22T22:07:48.471Z,3.70
2022-08-22T22:10:20.989Z,3.60
2022-08-22T22:12:53.779Z,3.70
2022-08-22T22:17:54.621Z,3.80
2022-08-22T22:20:27.572Z,3.30
2022-08-22T22:22:58.151Z,3.50
2022-08-22T22:25:40.508Z,3.40
2022-08-22T22:28:15.977Z,3.30
2022-08-22T22:30:50.353Z,3.00
2022-08-22T22:33:21.321Z,3.10
2022-08-22T22:35:52.466Z,3.90
2022-08-22T22:38:24.302Z,3.00
2022-08-22T22:40:55.169Z,3.20
2022-08-22T22:43:26.170Z,3.30
2022-08-22T22:45:56.956Z,3.00
2022-08-22T22:48:27.383Z,3.10
2022-08-22T22:50:58.239Z,3.50
2022-08-22T22:53:40.479Z,3.20
2022-08-22T22:56:22.193Z,3.70
2022-08-22T22:59:00.820Z,2.90
2022-08-22T23:02:04.108Z,2.80
2022-08-22T23:04:38.245Z,3.50
2022-08-22T23:07:09.841Z,3.00
2022-08-22T23:09:45.185Z,3.30
2022-08-22T23:12:16.633Z,2.80
2022-08-22T23:14:47.758Z,3.10
2022-08-22T23:17:19.020Z,3.20
2022-08-22T23:19:51.103Z,3.10
2022-08-22T23:22:22.724Z,3.20
2022-08-22T23:24:53.377Z,3.20
2022-08-22T23:27:23.949Z,3.30
2022-08-22T23:29:54.770Z,3.50
2022-08-22T23:32:25.269Z,3.30
2022-08-22T23:34:56.170Z,3.00
2022-08-22T23:37:26.578Z,3.00
2022-08-22T23:39:58.844Z,3.50
2022-08-22T23:42:32.136Z,3.40
2022-08-22T23:45:05.350Z,3.20
2022-08-22T23:47:36.367Z,3.40
2022-08-22T23:50:08.557Z,3.50
2022-08-22T23:52:39.977Z,3.10
2022-08-22T23:55:12.493Z,3.20
2022-08-22T23:57:44.277Z,3.10
